Time;durP1;ratioP1;P1;durP2;ratioP2;P2;SDS_P1;SDS_P2;PMS_P1;PMS_P2;Temp;Humidity;BMP_temperature;BMP_pressure;BME280_temperature;BME280_humidity;BME280_pressure;Samples;Min_cycle;Max_cycle;Signal;HPM_P1;HPM_P2
2022/11/26 00:01:36;;;;;;;;;;;21.60;73.10;;;;;;1499517;78;693;-66
2022/11/26 00:03:38;;;;;;;;;;;21.60;73.20;;;;;;1500320;78;1924;-67
2022/11/26 00:05:41;;;;;;;;;;;21.60;72.60;;;;;;1506239;77;683;-66
2022/11/26 00:07:44;;;;;;;;;;;21.70;72.60;;;;;;1499629;79;716;-66
2022/11/26 00:09:46;;;;;;;;;;;21.70;72.60;;;;;;1502796;77;683;-66
2022/11/26 00:11:47;;;;;;;;;;;21.70;72.50;;;;;;1502534;78;652;-66
2022/11/26 00:13:49;;;;;;;;;;;21.70;72.70;;;;;;1501064;77;1167;-66
2022/11/26 00:15:51;;;;;;;;;;;21.60;72.90;;;;;;1502823;78;671;-66
2022/11/26 00:17:53;;;;;;;;;;;21.60;72.90;;;;;;1498913;78;595;-66
2022/11/26 00:19:55;;;;;;;;;;;21.60;73.00;;;;;;1502135;78;586;-66
2022/11/26 00:21:57;;;;;;;;;;;21.60;73.30;;;;;;1495348;77;1939;-66
2022/11/26 00:24:01;;;;;;;;;;;21.50;73.50;;;;;;1496334;78;1168;-67
2022/11/26 00:26:02;;;;;;;;;;;21.50;73.50;;;;;;1483072;78;1615;-66
2022/11/26 00:28:06;;;;;;;;;;;21.60;73.70;;;;;;1501631;78;657;-66
2022/11/26 00:30:12;;;;;;;;;;;21.50;73.60;;;;;;1500042;78;731;-65
2022/11/26 00:32:15;;;;;;;;;;;21.50;73.50;;;;;;1498052;78;1537;-66
2022/11/26 00:34:17;;;;;;;;;;;21.50;73.50;;;;;;1502082;78;646;-66
2022/11/26 00:36:26;;;;;;;;;;;21.60;73.40;;;;;;1501881;78;673;-66
2022/11/26 00:38:27;;;;;;;;;;;21.50;73.40;;;;;;1498993;77;702;-67
2022/11/26 00:40:31;;;;;;;;;;;21.50;73.50;;;;;;1496497;78;636;-67
2022/11/26 00:42:32;;;;;;;;;;;21.50;73.50;;;;;;1501451;77;1953;-66
2022/11/26 00:44:34;;;;;;;;;;;21.50;73.50;;;;;;1498260;79;1490;-66
2022/11/26 00:46:36;;;;;;;;;;;21.40;73.30;;;;;;1500373;79;688;-66
2022/11/26 00:48:38;;;;;;;;;;;21.40;73.20;;;;;;1503023;77;674;-66
2022/11/26 00:50:41;;;;;;;;;;;21.50;73.30;;;;;;1500683;78;639;-66
2022/11/26 00:52:43;;;;;;;;;;;21.40;73.20;;;;;;1496742;77;1163;-66
2022/11/26 00:54:45;;;;;;;;;;;21.40;73.10;;;;;;1493373;78;676;-66
2022/11/26 00:56:47;;;;;;;;;;;21.40;73.10;;;;;;1501710;77;634;-66
2022/11/26 00:58:49;;;;;;;;;;;21.50;73.10;;;;;;1502328;77;745;-67
2022/11/26 01:00:51;;;;;;;;;;;21.40;73.10;;;;;;1502363;79;690;-66
2022/11/26 01:02:53;;;;;;;;;;;21.50;73.20;;;;;;1502082;78;1922;-66
2022/11/26 01:04:55;;;;;;;;;;;21.50;73.20;;;;;;1510369;77;658;-67
2022/11/26 01:06:57;;;;;;;;;;;21.50;73.10;;;;;;1501064;78;669;-66
2022/11/26 01:08:58;;;;;;;;;;;21.40;73.10;;;;;;1493481;78;652;-66
2022/11/26 01:11:01;;;;;;;;;;;21.50;73.10;;;;;;1496390;79;697;-66
2022/11/26 01:13:03;;;;;;;;;;;21.50;73.10;;;;;;1490942;77;1101;-66
2022/11/26 01:15:05;;;;;;;;;;;21.40;73.00;;;;;;1498505;78;686;-66
2022/11/26 01:17:08;;;;;;;;;;;21.40;72.90;;;;;;1493483;78;708;-66
2022/11/26 01:19:14;;;;;;;;;;;21.40;73.00;;;;;;1505283;77;641;-66
2022/11/26 01:21:16;;;;;;;;;;;21.40;73.00;;;;;;1489184;78;730;-66
2022/11/26 01:23:19;;;;;;;;;;;21.40;73.10;;;;;;1511935;71;2092;-70
2022/11/26 01:25:21;;;;;;;;;;;21.40;73.20;;;;;;1523519;76;659;-69
2022/11/26 01:27:23;;;;;;;;;;;21.40;73.20;;;;;;1523233;78;690;-69
2022/11/26 01:29:25;;;;;;;;;;;21.30;73.20;;;;;;1523451;77;925;-69
2022/11/26 01:31:27;;;;;;;;;;;21.40;73.20;;;;;;1527730;77;749;-69
2022/11/26 01:33:29;;;;;;;;;;;21.40;73.20;;;;;;1511807;76;1236;-69
2022/11/26 01:35:31;;;;;;;;;;;21.30;73.20;;;;;;1518400;76;670;-72
2022/11/26 01:37:33;;;;;;;;;;;21.30;73.30;;;;;;1513728;76;735;-70
2022/11/26 01:39:35;;;;;;;;;;;21.40;73.40;;;;;;1504621;76;815;-69
2022/11/26 01:41:47;;;;;;;;;;;21.40;73.40;;;;;;1510733;76;1622;-70
2022/11/26 01:43:49;;;;;;;;;;;21.30;73.50;;;;;;1510206;77;1945;-70
2022/11/26 01:45:51;;;;;;;;;;;21.30;73.50;;;;;;1498668;77;668;-69
2022/11/26 01:47:53;;;;;;;;;;;21.30;73.50;;;;;;1510919;76;939;-68
2022/11/26 01:49:59;;;;;;;;;;;21.30;73.50;;;;;;1498620;76;720;-69
2022/11/26 01:52:03;;;;;;;;;;;21.40;73.50;;;;;;1509462;76;1548;-70
2022/11/26 01:54:04;;;;;;;;;;;21.40;73.50;;;;;;1512593;76;1146;-69
2022/11/26 01:56:08;;;;;;;;;;;21.30;73.50;;;;;;1504294;76;753;-69
2022/11/26 01:58:11;;;;;;;;;;;21.40;73.50;;;;;;1517691;77;700;-69
2022/11/26 02:00:13;;;;;;;;;;;21.30;73.70;;;;;;1511386;76;553;-69
2022/11/26 02:02:15;;;;;;;;;;;21.30;73.60;;;;;;1516056;76;619;-70
2022/11/26 02:04:17;;;;;;;;;;;21.30;73.70;;;;;;1514286;77;1941;-71
2022/11/26 02:06:20;;;;;;;;;;;21.30;73.70;;;;;;1516742;76;701;-69
2022/11/26 02:08:22;;;;;;;;;;;21.30;73.80;;;;;;1518104;76;734;-71
2022/11/26 02:10:24;;;;;;;;;;;21.30;73.90;;;;;;1506674;76;745;-70
2022/11/26 02:12:26;;;;;;;;;;;21.40;73.80;;;;;;1510864;76;1177;-68
2022/11/26 02:14:33;;;;;;;;;;;21.30;73.60;;;;;;1507455;76;780;-69
2022/11/26 02:16:39;;;;;;;;;;;21.30;73.80;;;;;;1511691;76;921;-71
2022/11/26 02:18:41;;;;;;;;;;;21.40;73.80;;;;;;1476354;78;1033;-69
2022/11/26 02:21:01;;;;;;;;;;;21.30;73.80;;;;;;1507768;76;601;-69
2022/11/26 02:23:05;;;;;;;;;;;21.40;73.70;;;;;;1510926;76;1941;-68
2022/11/26 02:25:25;;;;;;;;;;;21.30;73.70;;;;;;1504295;77;1399;-67
2022/11/26 02:27:38;;;;;;;;;;;21.30;73.60;;;;;;1512489;76;705;-69
2022/11/26 02:29:41;;;;;;;;;;;21.30;73.40;;;;;;1491893;76;1926;-70
2022/11/26 02:31:54;;;;;;;;;;;21.30;73.40;;;;;;1511928;76;1863;-68
2022/11/26 02:34:13;;;;;;;;;;;21.30;73.30;;;;;;1510910;76;1174;-68
2022/11/26 02:36:26;;;;;;;;;;;21.40;73.60;;;;;;1519714;76;726;-71
2022/11/26 02:38:33;;;;;;;;;;;21.30;73.80;;;;;;1509927;76;699;-70
2022/11/26 02:40:34;;;;;;;;;;;21.30;73.60;;;;;;1507969;76;511;-68
2022/11/26 02:42:36;;;;;;;;;;;21.40;73.50;;;;;;1511546;76;1138;-65
2022/11/26 02:44:42;;;;;;;;;;;21.50;73.40;;;;;;1513697;76;1957;-67
2022/11/26 02:46:45;;;;;;;;;;;21.60;73.00;;;;;;1504604;76;907;-70
2022/11/26 02:48:47;;;;;;;;;;;21.70;72.40;;;;;;1511017;76;712;-68
2022/11/26 02:50:51;;;;;;;;;;;21.70;72.20;;;;;;1520366;77;637;-67
2022/11/26 02:52:53;;;;;;;;;;;21.70;71.90;;;;;;1509294;76;1094;-67
2022/11/26 02:54:55;;;;;;;;;;;21.70;71.80;;;;;;1514458;77;641;-67
2022/11/26 02:56:57;;;;;;;;;;;21.60;71.70;;;;;;1517699;77;663;-69
2022/11/26 02:58:59;;;;;;;;;;;21.60;71.90;;;;;;1510828;76;727;-69
2022/11/26 03:01:01;;;;;;;;;;;21.70;72.00;;;;;;1510280;77;699;-69
2022/11/26 03:03:04;;;;;;;;;;;21.50;72.10;;;;;;1511087;77;1949;-69
2022/11/26 03:05:06;;;;;;;;;;;21.60;72.30;;;;;;1513990;76;766;-68
2022/11/26 03:07:08;;;;;;;;;;;21.60;72.40;;;;;;1513067;77;653;-70
2022/11/26 03:09:10;;;;;;;;;;;21.60;72.50;;;;;;1501885;76;749;-69
2022/11/26 03:11:12;;;;;;;;;;;21.60;72.60;;;;;;1511357;78;687;-69
2022/11/26 03:13:14;;;;;;;;;;;21.50;72.70;;;;;;1510246;76;1119;-70
2022/11/26 03:15:16;;;;;;;;;;;21.50;72.80;;;;;;1522094;76;684;-69
2022/11/26 03:17:18;;;;;;;;;;;21.50;72.80;;;;;;1513641;77;728;-70
2022/11/26 03:19:20;;;;;;;;;;;21.50;72.80;;;;;;1513967;77;779;-69
2022/11/26 03:21:21;;;;;;;;;;;21.50;73.00;;;;;;1510874;76;705;-68
2022/11/26 03:23:23;;;;;;;;;;;21.50;72.90;;;;;;1512408;77;1945;-67
2022/11/26 03:25:25;;;;;;;;;;;21.40;72.90;;;;;;1523528;76;779;-68
2022/11/26 03:27:27;;;;;;;;;;;21.50;72.90;;;;;;1513250;76;773;-69
2022/11/26 03:29:29;;;;;;;;;;;21.50;72.90;;;;;;1512733;76;610;-68
2022/11/26 03:31:31;;;;;;;;;;;21.50;72.90;;;;;;1513348;76;673;-69
2022/11/26 03:33:33;;;;;;;;;;;21.60;72.60;;;;;;1517713;76;1668;-68
2022/11/26 03:35:35;;;;;;;;;;;21.50;72.90;;;;;;1522708;77;664;-68
2022/11/26 03:37:36;;;;;;;;;;;21.40;72.70;;;;;;1508842;76;680;-68
2022/11/26 03:39:38;;;;;;;;;;;21.50;73.00;;;;;;1514065;77;560;-68
2022/11/26 03:41:43;;;;;;;;;;;21.50;73.00;;;;;;1514131;76;706;-67
2022/11/26 03:43:44;;;;;;;;;;;21.40;73.00;;;;;;1510482;77;1939;-71
2022/11/26 03:45:46;;;;;;;;;;;21.40;73.10;;;;;;1516964;77;669;-68
2022/11/26 03:47:47;;;;;;;;;;;21.40;73.00;;;;;;1515516;76;755;-68
2022/11/26 03:49:49;;;;;;;;;;;21.40;73.10;;;;;;1510457;76;805;-68
2022/11/26 03:51:51;;;;;;;;;;;21.40;73.40;;;;;;1512989;78;682;-68
2022/11/26 03:53:53;;;;;;;;;;;21.40;73.30;;;;;;1512145;77;1093;-68
2022/11/26 03:55:55;;;;;;;;;;;21.40;73.30;;;;;;1519667;76;725;-69
2022/11/26 03:57:57;;;;;;;;;;;21.40;73.40;;;;;;1514235;77;756;-68
2022/11/26 03:59:59;;;;;;;;;;;21.30;73.40;;;;;;1511586;77;731;-69
2022/11/26 04:02:01;;;;;;;;;;;21.40;73.40;;;;;;1522188;77;738;-69
2022/11/26 04:04:02;;;;;;;;;;;21.40;73.50;;;;;;1515066;76;1947;-68
2022/11/26 04:06:04;;;;;;;;;;;21.40;73.50;;;;;;1512926;77;675;-69
2022/11/26 04:08:06;;;;;;;;;;;21.40;73.50;;;;;;1511893;76;769;-68
2022/11/26 04:10:08;;;;;;;;;;;21.40;73.40;;;;;;1523166;76;819;-69
2022/11/26 04:12:10;;;;;;;;;;;21.40;73.60;;;;;;1507735;76;766;-68
2022/11/26 04:14:12;;;;;;;;;;;21.40;73.60;;;;;;1512673;76;1118;-70
2022/11/26 04:16:14;;;;;;;;;;;21.30;73.90;;;;;;1512176;76;736;-66
2022/11/26 04:18:16;;;;;;;;;;;21.40;73.90;;;;;;1512818;76;683;-69
2022/11/26 04:20:18;;;;;;;;;;;21.40;73.80;;;;;;1506828;77;704;-65
2022/11/26 04:22:20;;;;;;;;;;;21.40;73.90;;;;;;1517280;77;707;-67
2022/11/26 04:24:22;;;;;;;;;;;21.40;73.80;;;;;;1519594;76;1944;-67
2022/11/26 04:26:23;;;;;;;;;;;21.60;73.40;;;;;;1516546;76;692;-68
2022/11/26 04:28:25;;;;;;;;;;;21.60;73.10;;;;;;1515104;76;763;-69
2022/11/26 04:30:27;;;;;;;;;;;21.60;73.10;;;;;;1518120;76;1376;-67
2022/11/26 04:32:29;;;;;;;;;;;21.60;73.10;;;;;;1502701;77;1165;-67
2022/11/26 04:34:31;;;;;;;;;;;21.50;73.10;;;;;;1509162;76;669;-67
2022/11/26 04:36:33;;;;;;;;;;;21.50;73.20;;;;;;1518123;77;767;-68
2022/11/26 04:38:35;;;;;;;;;;;21.50;73.40;;;;;;1513294;76;696;-68
2022/11/26 04:40:37;;;;;;;;;;;21.50;73.40;;;;;;1494850;78;694;-66
2022/11/26 04:42:38;;;;;;;;;;;21.40;73.50;;;;;;1511946;77;1169;-69
2022/11/26 04:44:40;;;;;;;;;;;21.50;73.50;;;;;;1512618;76;1941;-68
2022/11/26 04:46:42;;;;;;;;;;;21.50;73.60;;;;;;1514675;76;670;-68
2022/11/26 04:48:44;;;;;;;;;;;21.50;73.60;;;;;;1520787;76;699;-67
2022/11/26 04:50:46;;;;;;;;;;;21.40;73.80;;;;;;1518402;76;632;-68
2022/11/26 04:52:48;;;;;;;;;;;21.40;73.80;;;;;;1514802;76;1166;-67
2022/11/26 04:54:50;;;;;;;;;;;21.50;73.70;;;;;;1510037;77;690;-68
2022/11/26 04:56:52;;;;;;;;;;;21.50;73.50;;;;;;1512080;76;639;-67
2022/11/26 04:58:53;;;;;;;;;;;21.50;73.20;;;;;;1514202;76;682;-67
2022/11/26 05:00:55;;;;;;;;;;;21.50;73.10;;;;;;1501180;77;661;-67
2022/11/26 05:02:57;;;;;;;;;;;21.50;72.80;;;;;;1522336;77;1162;-67
2022/11/26 05:04:59;;;;;;;;;;;21.60;72.80;;;;;;1510543;76;1958;-68
2022/11/26 05:07:01;;;;;;;;;;;21.60;72.80;;;;;;1502257;76;677;-68
2022/11/26 05:09:03;;;;;;;;;;;21.50;73.00;;;;;;1512847;76;737;-70
2022/11/26 05:11:05;;;;;;;;;;;21.50;73.20;;;;;;1522548;76;699;-68
2022/11/26 05:13:07;;;;;;;;;;;21.50;73.50;;;;;;1512364;76;1103;-68
2022/11/26 05:15:09;;;;;;;;;;;21.40;73.50;;;;;;1513991;76;703;-69
2022/11/26 05:17:11;;;;;;;;;;;21.40;73.50;;;;;;1513879;76;682;-69
2022/11/26 05:19:13;;;;;;;;;;;21.40;73.50;;;;;;1513244;76;735;-68
2022/11/26 05:21:14;;;;;;;;;;;21.40;73.60;;;;;;1511853;76;748;-68
2022/11/26 05:23:16;;;;;;;;;;;21.40;73.70;;;;;;1514035;76;1201;-68
2022/11/26 05:25:18;;;;;;;;;;;21.40;73.60;;;;;;1513356;76;1939;-70
2022/11/26 05:27:20;;;;;;;;;;;21.40;73.70;;;;;;1516070;76;781;-66
2022/11/26 05:29:22;;;;;;;;;;;21.40;73.80;;;;;;1511287;76;726;-67
2022/11/26 05:31:24;;;;;;;;;;;21.40;73.70;;;;;;1501302;76;689;-68
2022/11/26 05:33:26;;;;;;;;;;;21.40;73.60;;;;;;1514443;76;1181;-68
2022/11/26 05:35:27;;;;;;;;;;;21.40;73.50;;;;;;1509932;76;647;-68
2022/11/26 05:37:29;;;;;;;;;;;21.50;73.60;;;;;;1510314;77;681;-68
2022/11/26 05:39:31;;;;;;;;;;;21.50;73.50;;;;;;1513469;78;705;-69
2022/11/26 05:41:33;;;;;;;;;;;21.40;73.10;;;;;;1510850;76;736;-67
2022/11/26 05:43:35;;;;;;;;;;;21.50;73.40;;;;;;1512644;76;1176;-68
2022/11/26 05:45:37;;;;;;;;;;;21.50;73.10;;;;;;1521599;76;1929;-68
2022/11/26 05:47:39;;;;;;;;;;;21.60;72.90;;;;;;1516131;76;665;-68
2022/11/26 05:49:41;;;;;;;;;;;21.60;72.70;;;;;;1513096;76;870;-66
2022/11/26 05:51:42;;;;;;;;;;;21.60;72.70;;;;;;1515715;76;687;-69
2022/11/26 05:53:44;;;;;;;;;;;21.60;72.70;;;;;;1511766;77;1158;-68
2022/11/26 05:55:46;;;;;;;;;;;21.50;72.70;;;;;;1510716;76;681;-67
2022/11/26 05:57:48;;;;;;;;;;;21.50;72.70;;;;;;1510540;78;689;-68
2022/11/26 05:59:50;;;;;;;;;;;21.60;72.60;;;;;;1509998;76;708;-67
2022/11/26 06:01:52;;;;;;;;;;;21.60;72.80;;;;;;1515897;76;746;-68
2022/11/26 06:03:54;;;;;;;;;;;21.50;72.90;;;;;;1515186;77;1937;-68
2022/11/26 06:05:56;;;;;;;;;;;21.50;73.00;;;;;;1512481;76;767;-68
2022/11/26 06:07:58;;;;;;;;;;;21.50;73.10;;;;;;1498553;77;746;-69
2022/11/26 06:10:00;;;;;;;;;;;21.50;73.20;;;;;;1509373;77;702;-69
2022/11/26 06:12:02;;;;;;;;;;;21.50;73.20;;;;;;1507284;76;698;-69
2022/11/26 06:14:04;;;;;;;;;;;21.30;73.40;;;;;;1511204;76;1146;-68
2022/11/26 06:16:06;;;;;;;;;;;21.40;73.50;;;;;;1507268;76;733;-68
2022/11/26 06:18:08;;;;;;;;;;;21.30;73.50;;;;;;1516740;76;753;-68
2022/11/26 06:20:10;;;;;;;;;;;21.30;73.70;;;;;;1526971;76;682;-68
2022/11/26 06:22:12;;;;;;;;;;;21.30;73.70;;;;;;1514461;76;1550;-68
2022/11/26 06:24:14;;;;;;;;;;;21.20;73.70;;;;;;1505323;76;1968;-70
2022/11/26 06:26:16;;;;;;;;;;;21.30;73.90;;;;;;1518141;77;765;-67
2022/11/26 06:28:17;;;;;;;;;;;21.30;73.90;;;;;;1513427;77;708;-68
2022/11/26 06:30:20;;;;;;;;;;;21.30;73.90;;;;;;1513704;76;798;-69
2022/11/26 06:32:22;;;;;;;;;;;21.20;73.80;;;;;;1512227;78;768;-69
2022/11/26 06:34:24;;;;;;;;;;;21.20;73.90;;;;;;1518921;76;726;-66
2022/11/26 06:36:26;;;;;;;;;;;21.20;74.00;;;;;;1509839;76;666;-68
2022/11/26 06:38:28;;;;;;;;;;;21.20;74.00;;;;;;1511463;76;775;-68
2022/11/26 06:40:29;;;;;;;;;;;21.20;74.10;;;;;;1509448;77;724;-68
2022/11/26 06:42:31;;;;;;;;;;;21.20;74.00;;;;;;1513182;76;1169;-68
2022/11/26 06:44:36;;;;;;;;;;;21.20;74.10;;;;;;1517353;76;1952;-68
2022/11/26 06:46:38;;;;;;;;;;;21.20;74.10;;;;;;1521394;77;706;-68
2022/11/26 06:48:40;;;;;;;;;;;21.20;74.10;;;;;;1522303;77;665;-68
2022/11/26 06:50:41;;;;;;;;;;;21.20;74.20;;;;;;1515636;77;708;-69
2022/11/26 06:52:43;;;;;;;;;;;21.20;74.20;;;;;;1512182;76;1162;-72
2022/11/26 06:54:45;;;;;;;;;;;21.20;74.20;;;;;;1510735;77;749;-76
2022/11/26 06:56:47;;;;;;;;;;;21.10;74.30;;;;;;1512773;76;668;-77
2022/11/26 06:58:49;;;;;;;;;;;21.20;74.20;;;;;;1498239;76;544;-71
2022/11/26 07:00:51;;;;;;;;;;;21.20;74.30;;;;;;1516639;76;676;-65
2022/11/26 07:02:53;;;;;;;;;;;21.20;75.80;;;;;;1509162;77;1130;-65
2022/11/26 07:04:55;;;;;;;;;;;21.30;75.10;;;;;;1517471;77;1940;-62
2022/11/26 07:06:56;;;;;;;;;;;21.40;74.30;;;;;;1515313;76;676;-63
2022/11/26 07:08:59;;;;;;;;;;;21.40;73.90;;;;;;1513522;76;804;-63
2022/11/26 07:11:02;;;;;;;;;;;21.60;73.60;;;;;;1493181;77;1269;-62
2022/11/26 07:13:04;;;;;;;;;;;21.60;73.30;;;;;;1505800;76;1152;-62
2022/11/26 07:15:06;;;;;;;;;;;21.60;73.00;;;;;;1515179;76;773;-62
2022/11/26 07:17:08;;;;;;;;;;;21.70;72.80;;;;;;1510935;77;687;-61
2022/11/26 07:19:13;;;;;;;;;;;21.70;72.60;;;;;;1510736;76;1554;-62
2022/11/26 07:21:15;;;;;;;;;;;21.70;72.40;;;;;;1510210;76;768;-63
2022/11/26 07:23:17;;;;;;;;;;;21.70;72.10;;;;;;1515337;70;2101;-65
2022/11/26 07:25:18;;;;;;;;;;;21.60;71.50;;;;;;1484039;78;1955;-65
2022/11/26 07:27:21;;;;;;;;;;;21.50;71.30;;;;;;1487731;78;629;-65
2022/11/26 07:29:23;;;;;;;;;;;21.50;71.50;;;;;;1478875;78;696;-66
2022/11/26 07:31:25;;;;;;;;;;;21.50;71.30;;;;;;1480861;78;654;-67
2022/11/26 07:33:27;;;;;;;;;;;21.60;71.40;;;;;;1481935;78;1220;-66
2022/11/26 07:35:31;;;;;;;;;;;21.60;71.40;;;;;;1488104;79;596;-66
2022/11/26 07:37:33;;;;;;;;;;;21.60;70.90;;;;;;1487421;78;1623;-65
2022/11/26 07:39:35;;;;;;;;;;;21.60;71.10;;;;;;1488067;78;652;-67
2022/11/26 07:41:36;;;;;;;;;;;21.50;73.00;;;;;;1487250;78;653;-65
2022/11/26 07:43:39;;;;;;;;;;;21.40;72.80;;;;;;1487992;78;1211;-65
2022/11/26 07:45:40;;;;;;;;;;;21.40;72.80;;;;;;1488192;78;1930;-64
2022/11/26 07:47:42;;;;;;;;;;;21.60;72.60;;;;;;1487948;78;613;-66
2022/11/26 07:49:44;;;;;;;;;;;21.50;72.30;;;;;;1488022;78;701;-66
2022/11/26 07:51:46;;;;;;;;;;;21.70;72.20;;;;;;1488041;78;555;-66
2022/11/26 07:53:48;;;;;;;;;;;21.60;72.10;;;;;;1497082;78;1110;-63
2022/11/26 07:55:50;;;;;;;;;;;21.60;72.40;;;;;;1493710;78;744;-64
2022/11/26 07:57:52;;;;;;;;;;;21.60;72.30;;;;;;1488020;79;722;-66
2022/11/26 07:59:53;;;;;;;;;;;21.50;72.90;;;;;;1485756;78;649;-65
2022/11/26 08:01:55;;;;;;;;;;;21.40;73.20;;;;;;1488087;78;670;-64
2022/11/26 08:03:58;;;;;;;;;;;21.40;73.40;;;;;;1487847;78;1216;-66
2022/11/26 08:06:00;;;;;;;;;;;21.40;73.50;;;;;;1488023;79;1960;-64
2022/11/26 08:08:01;;;;;;;;;;;21.30;73.70;;;;;;1487627;78;766;-65
2022/11/26 08:10:04;;;;;;;;;;;21.30;73.50;;;;;;1487893;78;661;-66
2022/11/26 08:12:06;;;;;;;;;;;21.50;73.50;;;;;;1487391;78;673;-67
2022/11/26 08:14:09;;;;;;;;;;;21.60;72.90;;;;;;1493763;78;1486;-66
2022/11/26 08:16:11;;;;;;;;;;;21.60;72.40;;;;;;1493949;78;688;-65
2022/11/26 08:18:13;;;;;;;;;;;21.70;72.10;;;;;;1496014;78;672;-66
2022/11/26 08:20:15;;;;;;;;;;;21.70;71.90;;;;;;1492616;78;635;-67
2022/11/26 08:22:17;;;;;;;;;;;21.80;71.60;;;;;;1488900;78;575;-67
2022/11/26 08:24:19;;;;;;;;;;;21.90;71.40;;;;;;1490535;78;1121;-67
2022/11/26 08:26:20;;;;;;;;;;;21.80;71.10;;;;;;1483968;78;1928;-66
2022/11/26 08:28:22;;;;;;;;;;;21.90;71.10;;;;;;1488011;78;701;-69
2022/11/26 08:30:24;;;;;;;;;;;21.80;70.90;;;;;;1487205;78;691;-70
2022/11/26 08:32:26;;;;;;;;;;;21.80;70.90;;;;;;1487753;78;649;-67
2022/11/26 08:34:28;;;;;;;;;;;21.90;70.80;;;;;;1482779;78;1197;-66
2022/11/26 08:36:30;;;;;;;;;;;21.80;70.60;;;;;;1497509;78;584;-67
2022/11/26 08:38:32;;;;;;;;;;;21.90;70.60;;;;;;1490773;78;749;-68
2022/11/26 08:40:34;;;;;;;;;;;21.90;70.40;;;;;;1500423;78;715;-65
2022/11/26 08:42:35;;;;;;;;;;;21.90;70.30;;;;;;1483025;78;645;-66
2022/11/26 08:44:37;;;;;;;;;;;21.80;70.20;;;;;;1490791;78;1060;-66
2022/11/26 08:46:40;;;;;;;;;;;21.80;70.20;;;;;;1484922;78;1943;-66
2022/11/26 08:48:42;;;;;;;;;;;21.80;70.10;;;;;;1497229;78;638;-65
2022/11/26 08:50:43;;;;;;;;;;;21.80;70.10;;;;;;1487938;78;597;-65
2022/11/26 08:52:45;;;;;;;;;;;21.90;70.10;;;;;;1489162;78;1241;-66
2022/11/26 08:54:47;;;;;;;;;;;21.90;70.10;;;;;;1498212;78;621;-66
2022/11/26 08:56:49;;;;;;;;;;;21.90;69.90;;;;;;1487772;78;733;-65
2022/11/26 08:58:51;;;;;;;;;;;21.80;69.70;;;;;;1500460;78;679;-64
2022/11/26 09:00:53;;;;;;;;;;;21.90;69.80;;;;;;1486844;78;705;-66
2022/11/26 09:02:55;;;;;;;;;;;21.90;69.70;;;;;;1493370;78;1163;-66
2022/11/26 09:04:57;;;;;;;;;;;21.90;69.80;;;;;;1490487;78;1049;-66
2022/11/26 09:06:58;;;;;;;;;;;21.80;69.60;;;;;;1500609;78;1933;-65
2022/11/26 09:09:12;;;;;;;;;;;21.80;69.60;;;;;;1489357;78;726;-66
2022/11/26 09:11:14;;;;;;;;;;;21.90;69.70;;;;;;1498276;78;1565;-69
2022/11/26 09:13:16;;;;;;;;;;;21.90;69.60;;;;;;1505271;77;1150;-67
2022/11/26 09:15:18;;;;;;;;;;;21.90;69.60;;;;;;1489142;78;731;-67
2022/11/26 09:17:20;;;;;;;;;;;21.90;69.60;;;;;;1490464;78;693;-67
2022/11/26 09:19:22;;;;;;;;;;;21.90;69.60;;;;;;1494008;78;644;-67
2022/11/26 09:21:24;;;;;;;;;;;21.90;69.50;;;;;;1490395;78;708;-66
2022/11/26 09:23:26;;;;;;;;;;;21.90;69.60;;;;;;1485622;78;1181;-68
2022/11/26 09:25:27;;;;;;;;;;;21.90;69.60;;;;;;1487736;78;1924;-68
2022/11/26 09:27:29;;;;;;;;;;;21.80;69.60;;;;;;1487952;78;725;-66
2022/11/26 09:29:31;;;;;;;;;;;21.90;69.60;;;;;;1486724;78;656;-67
2022/11/26 09:31:33;;;;;;;;;;;21.80;69.50;;;;;;1487999;79;713;-67
2022/11/26 09:33:35;;;;;;;;;;;21.90;69.50;;;;;;1494475;78;1152;-67
2022/11/26 09:35:37;;;;;;;;;;;21.90;69.50;;;;;;1488679;78;691;-67
2022/11/26 09:37:39;;;;;;;;;;;21.90;69.40;;;;;;1486619;78;662;-70
2022/11/26 09:39:40;;;;;;;;;;;21.90;69.50;;;;;;1490797;78;613;-70
2022/11/26 09:41:50;;;;;;;;;;;21.90;69.40;;;;;;1487620;79;673;-69
2022/11/26 09:43:53;;;;;;;;;;;21.90;69.50;;;;;;1488705;78;1086;-69
2022/11/26 09:45:57;;;;;;;;;;;21.90;69.40;;;;;;1487875;78;1975;-70
2022/11/26 09:47:58;;;;;;;;;;;21.90;69.40;;;;;;1494207;78;1387;-69
2022/11/26 09:50:02;;;;;;;;;;;21.90;69.40;;;;;;1488543;78;716;-69
2022/11/26 09:52:04;;;;;;;;;;;21.90;69.50;;;;;;1490661;78;703;-70
2022/11/26 09:54:06;;;;;;;;;;;21.90;69.40;;;;;;1491867;77;1117;-70
2022/11/26 09:56:13;;;;;;;;;;;21.90;69.50;;;;;;1491381;78;677;-70
2022/11/26 09:58:16;;;;;;;;;;;21.90;69.50;;;;;;1483156;78;1507;-70
2022/11/26 10:00:23;;;;;;;;;;;21.90;69.50;;;;;;1492952;78;565;-70
2022/11/26 10:02:25;;;;;;;;;;;21.90;69.40;;;;;;1489099;78;689;-70
2022/11/26 10:04:29;;;;;;;;;;;21.90;69.50;;;;;;1494076;78;1062;-70
2022/11/26 10:06:35;;;;;;;;;;;21.90;69.50;;;;;;1486289;78;1924;-69
2022/11/26 10:08:50;;;;;;;;;;;21.90;69.50;;;;;;1490136;78;585;-69
2022/11/26 10:10:57;;;;;;;;;;;21.90;69.50;;;;;;1487414;79;1749;-69
2022/11/26 10:13:00;;;;;;;;;;;21.90;69.50;;;;;;1488226;78;1121;-69
2022/11/26 10:15:16;;;;;;;;;;;21.90;69.50;;;;;;1496165;78;689;-69
2022/11/26 10:17:22;;;;;;;;;;;21.90;69.60;;;;;;1484589;78;643;-69
2022/11/26 10:19:29;;;;;;;;;;;21.80;69.50;;;;;;1487540;78;1796;-69
2022/11/26 10:21:38;;;;;;;;;;;21.90;69.60;;;;;;1499499;78;1655;-69
2022/11/26 10:23:44;;;;;;;;;;;21.90;69.70;;;;;;1494400;78;1546;-70
2022/11/26 10:25:53;;;;;;;;;;;21.90;69.60;;;;;;1433535;78;1966;-69
2022/11/26 10:27:56;;;;;;;;;;;21.90;69.60;;;;;;1475062;78;1104;-69
2022/11/26 10:30:02;;;;;;;;;;;21.90;69.60;;;;;;1489875;78;754;-69
2022/11/26 10:32:15;;;;;;;;;;;21.90;69.50;;;;;;1488909;78;1021;-68
2022/11/26 10:34:21;;;;;;;;;;;21.80;69.50;;;;;;1501366;77;1467;-68
2022/11/26 10:36:25;;;;;;;;;;;21.80;69.50;;;;;;1485710;78;1893;-70
2022/11/26 10:38:26;;;;;;;;;;;21.90;69.60;;;;;;1487036;78;653;-68
2022/11/26 10:40:29;;;;;;;;;;;21.90;69.50;;;;;;1487846;78;694;-69
2022/11/26 10:42:33;;;;;;;;;;;21.90;69.60;;;;;;1487910;79;708;-69
2022/11/26 10:44:36;;;;;;;;;;;21.90;69.60;;;;;;1493036;78;1147;-71
2022/11/26 10:46:39;;;;;;;;;;;21.80;69.40;;;;;;1487460;78;1915;-69
2022/11/26 10:48:41;;;;;;;;;;;21.90;69.60;;;;;;1504946;78;689;-69
2022/11/26 10:50:43;;;;;;;;;;;21.90;69.50;;;;;;1488621;78;682;-69
2022/11/26 10:52:45;;;;;;;;;;;21.90;69.50;;;;;;1487997;78;732;-70
2022/11/26 10:54:47;;;;;;;;;;;21.90;69.50;;;;;;1488239;78;572;-69
2022/11/26 10:56:52;;;;;;;;;;;21.90;69.50;;;;;;1497965;78;548;-69
2022/11/26 10:58:52;;;;;;;;;;;21.90;69.50;;;;;;1493432;78;1642;-69
2022/11/26 11:00:55;;;;;;;;;;;21.80;69.40;;;;;;1488129;78;736;-69
2022/11/26 11:02:57;;;;;;;;;;;21.90;69.50;;;;;;1490850;78;1502;-69
2022/11/26 11:05:00;;;;;;;;;;;21.90;69.50;;;;;;1489619;78;633;-69
2022/11/26 11:07:02;;;;;;;;;;;21.90;69.50;;;;;;1488958;78;1918;-69
2022/11/26 11:09:05;;;;;;;;;;;21.90;69.50;;;;;;1495641;78;681;-69
2022/11/26 11:11:09;;;;;;;;;;;21.90;69.50;;;;;;1498113;78;1577;-70
2022/11/26 11:13:11;;;;;;;;;;;21.90;69.40;;;;;;1491026;78;1218;-70
2022/11/26 11:15:20;;;;;;;;;;;21.90;69.40;;;;;;1496883;78;687;-70
2022/11/26 11:17:32;;;;;;;;;;;21.90;69.50;;;;;;1488060;78;569;-69
2022/11/26 11:19:34;;;;;;;;;;;21.90;69.40;;;;;;1488068;78;649;-70
2022/11/26 11:21:37;;;;;;;;;;;21.90;69.40;;;;;;1483810;78;618;-68
2022/11/26 11:23:39;;;;;;;;;;;21.90;69.40;;;;;;1488143;78;1124;-70
2022/11/26 11:25:41;;;;;;;;;;;21.80;69.40;;;;;;1488276;78;833;-71
2022/11/26 11:27:43;;;;;;;;;;;21.80;69.70;;;;;;1488054;78;1947;-70
2022/11/26 11:29:45;;;;;;;;;;;21.80;69.10;;;;;;1497644;78;652;-70
2022/11/26 11:31:47;;;;;;;;;;;21.70;68.40;;;;;;1489040;78;672;-68
2022/11/26 11:33:49;;;;;;;;;;;21.60;68.20;;;;;;1500631;77;1186;-70
2022/11/26 11:36:01;;;;;;;;;;;21.70;68.50;;;;;;1487905;78;753;-69
2022/11/26 11:38:03;;;;;;;;;;;21.60;68.60;;;;;;1484642;78;671;-70
2022/11/26 11:40:05;;;;;;;;;;;21.50;69.40;;;;;;1499263;78;728;-70
2022/11/26 11:42:09;;;;;;;;;;;21.40;69.90;;;;;;1487100;78;733;-68
2022/11/26 11:44:12;;;;;;;;;;;21.30;70.40;;;;;;1486579;78;1827;-68
2022/11/26 11:46:19;;;;;;;;;;;21.30;70.80;;;;;;1489191;78;1924;-68
2022/11/26 11:48:28;;;;;;;;;;;21.30;71.20;;;;;;1492000;78;1375;-69
2022/11/26 11:50:32;;;;;;;;;;;21.30;71.60;;;;;;1487316;78;1675;-68
2022/11/26 11:52:35;;;;;;;;;;;21.30;71.90;;;;;;1494773;78;686;-69
2022/11/26 11:54:55;;;;;;;;;;;21.30;72.30;;;;;;1493005;78;1719;-69
2022/11/26 11:57:02;;;;;;;;;;;21.30;72.70;;;;;;1488160;78;605;-68
2022/11/26 11:59:06;;;;;;;;;;;21.30;73.30;;;;;;1491984;78;1732;-69
2022/11/26 12:01:09;;;;;;;;;;;21.30;73.80;;;;;;1490864;78;676;-68
2022/11/26 12:03:27;;;;;;;;;;;21.30;74.10;;;;;;1490167;78;1140;-69
2022/11/26 12:05:31;;;;;;;;;;;21.40;74.50;;;;;;1497438;78;713;-68
2022/11/26 12:07:38;;;;;;;;;;;21.40;75.00;;;;;;1489203;79;1949;-68
2022/11/26 12:09:44;;;;;;;;;;;21.40;75.40;;;;;;1498157;78;661;-68
2022/11/26 12:11:48;;;;;;;;;;;21.50;75.80;;;;;;1492415;78;695;-67
2022/11/26 12:13:51;;;;;;;;;;;21.50;76.00;;;;;;1486615;78;2115;-68